Time,TemperatureF,DewpointF,PressureIn,WindDirection,WindDirectionDegrees,WindSpeedMPH,WindSpeedGustMPH,Humidity,HourlyPrecipIn,Conditions,Clouds,dailyrainin,SoftwareType,DateUTC
2013-12-26 00:00:00,-5.4,-8.7,30.51,WNW,282,0.0,0.0,85,0.00,,,0.00,Wunderground v.1.15,2013-12-26 05:00:00,
2013-12-26 00:10:00,-5.4,-9.0,30.51,WNW,282,0.0,0.0,84,0.00,,,0.00,Wunderground v.1.15,2013-12-26 05:10:00,
2013-12-26 00:20:00,-5.0,-8.4,30.52,WNW,282,0.0,0.0,85,0.00,,,0.00,Wunderground v.1.15,2013-12-26 05:20:00,
2013-12-26 00:30:00,-5.3,-8.9,30.51,WNW,282,0.0,0.0,84,0.00,,,0.00,Wunderground v.1.15,2013-12-26 05:30:00,
2013-12-26 00:40:00,-5.4,-8.7,30.51,WNW,282,0.0,0.0,85,0.00,,,0.00,Wunderground v.1.15,2013-12-26 05:40:00,
2013-12-26 00:50:00,-5.3,-8.6,30.52,West,281,0.0,0.0,85,0.00,,,0.00,Wunderground v.1.15,2013-12-26 05:50:00,
2013-12-26 01:00:00,-5.3,-8.9,30.51,WNW,282,0.0,0.0,84,0.00,,,0.00,Wunderground v.1.15,2013-12-26 06:00:00,
2013-12-26 01:10:00,-5.4,-9.0,30.51,WNW,282,0.0,0.0,84,0.00,,,0.00,Wunderground v.1.15,2013-12-26 06:10:00,
2013-12-26 01:20:00,-5.8,-9.4,30.51,WNW,282,0.0,0.0,84,0.00,,,0.00,Wunderground v.1.15,2013-12-26 06:20:00,
2013-12-26 01:30:00,-5.9,-9.5,30.51,WNW,282,0.0,0.0,84,0.00,,,0.00,Wunderground v.1.15,2013-12-26 06:30:00,
2013-12-26 01:40:00,-6.1,-9.7,30.52,WNW,282,0.0,0.0,84,0.00,,,0.00,Wunderground v.1.15,2013-12-26 06:40:00,
2013-12-26 01:50:00,-6.4,-10.2,30.52,WNW,282,0.0,0.0,83,0.00,,,0.00,Wunderground v.1.15,2013-12-26 06:50:00,
2013-12-26 02:00:00,-6.8,-10.6,30.52,WNW,282,0.0,0.0,83,0.00,,,0.00,Wunderground v.1.15,2013-12-26 07:00:00,
2013-12-26 02:10:00,-6.9,-10.5,30.52,WNW,282,0.0,0.0,84,0.00,,,0.00,Wunderground v.1.15,2013-12-26 07:10:00,
2013-12-26 02:20:00,-7.0,-10.6,30.51,WNW,282,0.0,0.0,84,0.00,,,0.00,Wunderground v.1.15,2013-12-26 07:20:00,
2013-12-26 02:30:00,-6.9,-10.5,30.51,WNW,282,0.0,0.0,84,0.00,,,0.00,Wunderground v.1.15,2013-12-26 07:30:00,
2013-12-26 02:40:00,-6.9,-10.5,30.51,WNW,282,0.0,0.0,84,0.00,,,0.00,Wunderground v.1.15,2013-12-26 07:40:00,
2013-12-26 02:50:00,-6.9,-10.5,30.53,West,281,0.0,0.0,84,0.00,,,0.00,Wunderground v.1.15,2013-12-26 07:50:00,
2013-12-26 03:00:00,-6.9,-10.5,30.51,WNW,282,0.0,0.0,84,0.00,,,0.00,Wunderground v.1.15,2013-12-26 08:00:00,
2013-12-26 03:10:00,-7.0,-10.6,30.51,WNW,282,0.0,0.0,84,0.00,,,0.00,Wunderground v.1.15,2013-12-26 08:10:00,
2013-12-26 03:20:00,-6.9,-10.5,30.51,West,281,0.0,0.0,84,0.00,,,0.00,Wunderground v.1.15,2013-12-26 08:20:00,
2013-12-26 03:30:00,-6.5,-10.1,30.51,West,281,0.0,0.0,84,0.00,,,0.00,Wunderground v.1.15,2013-12-26 08:30:00,
2013-12-26 03:40:00,-6.3,-9.9,30.50,WNW,282,0.0,0.0,84,0.00,,,0.00,Wunderground v.1.15,2013-12-26 08:40:00,
2013-12-26 03:50:00,-6.1,-9.7,30.49,WNW,282,0.0,0.0,84,0.00,,,0.00,Wunderground v.1.15,2013-12-26 08:50:00,
2013-12-26 04:00:00,-5.7,-9.0,30.49,WNW,282,0.0,0.0,85,0.00,,,0.00,Wunderground v.1.15,2013-12-26 09:00:00,
2013-12-26 04:10:00,-5.4,-8.7,30.49,WNW,282,0.0,0.0,85,0.00,,,0.00,Wunderground v.1.15,2013-12-26 09:10:00,
2013-12-26 04:20:00,-5.2,-8.8,30.49,West,281,0.0,0.0,84,0.00,,,0.00,Wunderground v.1.15,2013-12-26 09:20:00,
2013-12-26 04:30:00,-5.0,-8.4,30.49,West,281,0.0,0.0,85,0.00,,,0.00,Wunderground v.1.15,2013-12-26 09:30:00,
2013-12-26 04:40:00,-4.7,-8.1,30.48,WNW,282,0.0,0.0,85,0.00,,,0.00,Wunderground v.1.15,2013-12-26 09:40:00,
2013-12-26 04:50:00,-4.6,-8.2,30.48,WNW,282,0.0,0.0,84,0.00,,,0.00,Wunderground v.1.15,2013-12-26 09:50:00,
2013-12-26 05:00:00,-4.8,-8.4,30.48,West,281,0.0,0.0,84,0.00,,,0.00,Wunderground v.1.15,2013-12-26 10:00:00,
2013-12-26 05:10:00,-4.9,-8.5,30.48,West,281,0.0,0.0,84,0.00,,,0.00,Wunderground v.1.15,2013-12-26 10:10:00,
2013-12-26 05:20:00,-5.0,-8.6,30.48,WNW,282,0.0,0.0,84,0.00,,,0.00,Wunderground v.1.15,2013-12-26 10:20:00,
2013-12-26 05:30:00,-5.0,-8.6,30.48,West,281,0.0,0.0,84,0.00,,,0.00,Wunderground v.1.15,2013-12-26 10:30:00,
2013-12-26 05:40:00,-5.0,-8.6,30.47,WNW,282,0.0,0.0,84,0.00,,,0.00,Wunderground v.1.15,2013-12-26 10:40:00,
2013-12-26 05:50:00,-5.0,-8.6,30.47,WNW,282,0.0,0.0,84,0.00,,,0.00,Wunderground v.1.15,2013-12-26 10:50:00,
2013-12-26 06:00:00,-4.9,-8.5,30.47,West,281,0.0,0.0,84,0.00,,,0.00,Wunderground v.1.15,2013-12-26 11:00:00,
2013-12-26 06:10:00,-5.0,-8.6,30.47,WNW,282,0.0,0.0,84,0.00,,,0.00,Wunderground v.1.15,2013-12-26 11:10:00,
2013-12-26 06:20:00,-4.9,-8.5,30.47,West,281,0.0,0.0,84,0.00,,,0.00,Wunderground v.1.15,2013-12-26 11:20:00,
2013-12-26 06:30:00,-4.5,-7.9,30.46,WNW,282,0.0,0.0,85,0.00,,,0.00,Wunderground v.1.15,2013-12-26 11:30:00,
2013-12-26 06:40:00,-4.1,-7.5,30.46,West,281,0.0,0.0,85,0.00,,,0.00,Wunderground v.1.15,2013-12-26 11:40:00,
2013-12-26 06:50:00,-3.4,-6.5,30.45,WNW,282,0.0,0.0,86,0.00,,,0.00,Wunderground v.1.15,2013-12-26 11:50:00,
2013-12-26 07:10:00,-2.6,-6.0,30.45,WNW,282,0.0,0.0,85,0.00,,,0.00,Wunderground v.1.15,2013-12-26 12:10:00,
2013-12-26 07:20:00,-2.5,-5.9,30.45,West,281,0.0,0.0,85,0.00,,,0.00,Wunderground v.1.15,2013-12-26 12:20:00,
2013-12-26 07:30:00,-2.2,-5.4,30.44,WNW,282,0.0,0.0,86,0.00,,,0.00,Wunderground v.1.15,2013-12-26 12:30:00,
2013-12-26 07:40:00,-1.8,-5.0,30.44,WNW,282,0.0,0.0,86,0.00,,,0.00,Wunderground v.1.15,2013-12-26 12:40:00,
2013-12-26 07:50:00,-1.1,-4.3,30.44,West,281,0.0,0.0,86,0.00,,,0.00,Wunderground v.1.15,2013-12-26 12:50:00,
2013-12-26 08:00:00,-0.4,-3.6,30.45,WNW,282,0.0,0.0,86,0.00,,,0.00,Wunderground v.1.15,2013-12-26 13:00:00,
2013-12-26 08:10:00,-0.1,-3.3,30.45,WNW,282,0.0,0.0,86,0.00,,,0.00,Wunderground v.1.15,2013-12-26 13:10:00,
2013-12-26 08:20:00,0.3,-2.9,30.45,WNW,282,0.0,0.0,86,0.00,,,0.00,Wunderground v.1.15,2013-12-26 13:20:00,
2013-12-26 08:30:00,0.6,-2.6,30.44,WNW,282,0.0,0.0,86,0.00,,,0.00,Wunderground v.1.15,2013-12-26 13:30:00,
2013-12-26 08:40:00,1.0,-2.0,30.44,West,281,0.0,0.0,87,0.00,,,0.00,Wunderground v.1.15,2013-12-26 13:40:00,
2013-12-26 08:50:00,1.4,-1.6,30.43,WNW,282,0.0,0.0,87,0.00,,,0.00,Wunderground v.1.15,2013-12-26 13:50:00,
2013-12-26 09:00:00,1.8,-1.4,30.43,WNW,282,0.0,0.0,86,0.00,,,0.00,Wunderground v.1.15,2013-12-26 14:00:00,
2013-12-26 09:10:00,1.9,-1.3,30.43,WNW,282,0.0,0.0,86,0.00,,,0.00,Wunderground v.1.15,2013-12-26 14:10:00,
2013-12-26 09:20:00,2.2,-0.8,30.43,WNW,282,0.0,0.0,87,0.00,,,0.00,Wunderground v.1.15,2013-12-26 14:20:00,
2013-12-26 09:30:00,2.2,-1.0,30.42,West,281,0.0,0.0,86,0.00,,,0.00,Wunderground v.1.15,2013-12-26 14:30:00,
2013-12-26 09:40:00,2.2,-1.0,30.42,West,281,0.0,0.0,86,0.00,,,0.00,Wunderground v.1.15,2013-12-26 14:40:00,
2013-12-26 09:50:00,2.4,-0.6,30.42,WNW,282,0.0,0.0,87,0.00,,,0.00,Wunderground v.1.15,2013-12-26 14:50:00,
2013-12-26 10:00:00,2.8,-0.2,30.42,West,281,0.0,0.0,87,0.00,,,0.00,Wunderground v.1.15,2013-12-26 15:00:00,
2013-12-26 10:10:00,3.4,0.4,30.41,West,281,0.0,0.0,87,0.00,,,0.00,Wunderground v.1.15,2013-12-26 15:10:00,
2013-12-26 10:20:00,4.1,1.3,30.40,WNW,282,0.0,0.0,88,0.00,,,0.00,Wunderground v.1.15,2013-12-26 15:20:00,
2013-12-26 10:30:00,4.9,2.1,30.39,West,281,0.0,0.0,88,0.00,,,0.00,Wunderground v.1.15,2013-12-26 15:30:00,
2013-12-26 10:40:00,5.3,2.3,30.39,West,281,0.0,0.0,87,0.00,,,0.00,Wunderground v.1.15,2013-12-26 15:40:00,
2013-12-26 10:50:00,5.6,2.6,30.38,West,281,0.0,0.0,87,0.00,,,0.00,Wunderground v.1.15,2013-12-26 15:50:00,
2013-12-26 11:00:00,6.2,3.2,30.37,WNW,282,0.0,0.0,87,0.00,,,0.00,Wunderground v.1.15,2013-12-26 16:00:00,
2013-12-26 11:10:00,6.3,3.3,30.36,WNW,282,0.0,0.0,87,0.00,,,0.00,Wunderground v.1.15,2013-12-26 16:10:00,
2013-12-26 11:20:00,6.5,3.7,30.36,WNW,282,0.0,0.0,88,0.00,,,0.00,Wunderground v.1.15,2013-12-26 16:20:00,
2013-12-26 11:30:00,6.9,4.1,30.36,WNW,282,0.0,0.0,88,0.00,,,0.00,Wunderground v.1.15,2013-12-26 16:30:00,
2013-12-26 11:40:00,7.3,4.5,30.35,West,281,0.0,0.0,88,0.00,,,0.00,Wunderground v.1.15,2013-12-26 16:40:00,
2013-12-26 11:50:00,7.6,4.8,30.35,WNW,282,0.0,0.0,88,0.00,,,0.00,Wunderground v.1.15,2013-12-26 16:50:00,
2013-12-26 12:00:00,8.0,5.2,30.34,WNW,282,0.0,0.0,88,0.00,,,0.00,Wunderground v.1.15,2013-12-26 17:00:00,
2013-12-26 12:10:00,8.3,5.5,30.33,West,279,0.0,0.0,88,0.00,,,0.00,Wunderground v.1.15,2013-12-26 17:10:00,
2013-12-26 12:20:00,8.7,5.9,30.33,West,279,0.0,0.0,88,0.00,,,0.00,Wunderground v.1.15,2013-12-26 17:20:00,
2013-12-26 12:30:00,8.7,5.6,30.32,West,279,0.0,0.0,87,0.00,,,0.00,Wunderground v.1.15,2013-12-26 17:30:00,
2013-12-26 12:40:00,8.7,5.6,30.32,West,279,0.0,0.0,87,0.00,,,0.00,Wunderground v.1.15,2013-12-26 17:40:00,
2013-12-26 12:50:00,8.6,5.8,30.31,West,279,0.0,0.0,88,0.00,,,0.00,Wunderground v.1.15,2013-12-26 17:50:00,
2013-12-26 13:00:00,8.5,5.7,30.30,WNW,286,0.0,0.0,88,0.00,,,0.00,Wunderground v.1.15,2013-12-26 18:00:00,
2013-12-26 13:10:00,8.6,5.8,30.29,WNW,286,0.0,0.0,88,0.00,,,0.00,Wunderground v.1.15,2013-12-26 18:10:00,
2013-12-26 13:20:00,8.9,6.1,30.28,WNW,286,0.0,0.0,88,0.00,,,0.00,Wunderground v.1.15,2013-12-26 18:20:00,
2013-12-26 13:30:00,9.3,6.5,30.28,WNW,286,0.0,0.0,88,0.00,,,0.00,Wunderground v.1.15,2013-12-26 18:30:00,
2013-12-26 13:40:00,9.5,6.7,30.27,WNW,286,0.0,0.0,88,0.00,,,0.00,Wunderground v.1.15,2013-12-26 18:40:00,
2013-12-26 13:50:00,9.2,6.4,30.27,WNW,286,0.0,0.0,88,0.00,,,0.00,Wunderground v.1.15,2013-12-26 18:50:00,
2013-12-26 14:00:00,9.1,6.3,30.26,WNW,286,0.0,0.0,88,0.00,,,0.00,Wunderground v.1.15,2013-12-26 19:00:00,
2013-12-26 14:10:00,9.1,6.3,30.26,WNW,286,0.0,0.0,88,0.00,,,0.00,Wunderground v.1.15,2013-12-26 19:10:00,
2013-12-26 14:20:00,9.4,6.8,30.25,WNW,286,0.0,0.0,89,0.00,,,0.00,Wunderground v.1.15,2013-12-26 19:20:00,
2013-12-26 14:30:00,9.8,7.2,30.24,WNW,286,0.0,0.0,89,0.00,,,0.00,Wunderground v.1.15,2013-12-26 19:30:00,
2013-12-26 14:40:00,9.9,7.3,30.24,WNW,286,0.0,0.0,89,0.00,,,0.00,Wunderground v.1.15,2013-12-26 19:40:00,
2013-12-26 14:50:00,10.0,7.4,30.24,WNW,286,0.0,0.0,89,0.00,,,0.00,Wunderground v.1.15,2013-12-26 19:50:00,
2013-12-26 15:00:00,10.2,7.6,30.24,WNW,286,0.0,0.0,89,0.00,,,0.00,Wunderground v.1.15,2013-12-26 20:00:00,
2013-12-26 15:10:00,10.4,7.8,30.23,WNW,286,0.0,0.0,89,0.00,,,0.00,Wunderground v.1.15,2013-12-26 20:10:00,
2013-12-26 15:20:00,10.3,7.7,30.23,WNW,286,0.0,0.0,89,0.00,,,0.00,Wunderground v.1.15,2013-12-26 20:20:00,
2013-12-26 15:30:00,10.3,7.7,30.23,WNW,286,0.0,0.0,89,0.00,,,0.00,Wunderground v.1.15,2013-12-26 20:30:00,
2013-12-26 15:40:00,10.3,7.7,30.23,WNW,286,0.0,0.0,89,0.00,,,0.00,Wunderground v.1.15,2013-12-26 20:40:00,
2013-12-26 15:50:00,10.4,7.8,30.23,WNW,286,0.0,0.0,89,0.00,,,0.00,Wunderground v.1.15,2013-12-26 20:50:00,
2013-12-26 16:00:00,10.4,7.8,30.23,WNW,286,0.0,0.0,89,0.00,,,0.00,Wunderground v.1.15,2013-12-26 21:00:00,
2013-12-26 16:10:00,10.3,7.7,30.23,WNW,286,0.0,0.0,89,0.00,,,0.00,Wunderground v.1.15,2013-12-26 21:10:00,
2013-12-26 16:20:00,10.2,7.6,30.23,WNW,286,0.0,0.0,89,0.00,,,0.00,Wunderground v.1.15,2013-12-26 21:20:00,
2013-12-26 16:30:00,9.9,7.3,30.23,WNW,286,0.0,0.0,89,0.00,,,0.00,Wunderground v.1.15,2013-12-26 21:30:00,
2013-12-26 16:40:00,9.9,7.3,30.22,WNW,286,0.0,0.0,89,0.00,,,0.00,Wunderground v.1.15,2013-12-26 21:40:00,
2013-12-26 16:50:00,9.9,7.3,30.22,WNW,286,0.0,0.0,89,0.00,,,0.00,Wunderground v.1.15,2013-12-26 21:50:00,
2013-12-26 17:00:00,9.9,7.3,30.22,WNW,286,0.0,0.0,89,0.00,,,0.00,Wunderground v.1.15,2013-12-26 22:00:00,
2013-12-26 17:10:00,9.9,7.3,30.21,WNW,286,0.0,0.0,89,0.00,,,0.00,Wunderground v.1.15,2013-12-26 22:10:00,
2013-12-26 17:20:00,9.9,7.3,30.21,WNW,286,0.0,0.0,89,0.00,,,0.00,Wunderground v.1.15,2013-12-26 22:20:00,
2013-12-26 17:30:00,10.0,7.7,30.21,WNW,286,0.0,0.0,90,0.00,,,0.00,Wunderground v.1.15,2013-12-26 22:30:00,
2013-12-26 17:40:00,10.3,8.0,30.20,WNW,286,0.0,0.0,90,0.00,,,0.00,Wunderground v.1.15,2013-12-26 22:40:00,
2013-12-26 17:50:00,10.4,8.0,30.20,WNW,286,0.0,0.0,90,0.00,,,0.00,Wunderground v.1.15,2013-12-26 22:50:00,
2013-12-26 18:00:00,10.5,8.1,30.20,WNW,286,0.0,0.0,90,0.00,,,0.00,Wunderground v.1.15,2013-12-26 23:00:00,
2013-12-26 18:10:00,10.7,8.3,30.20,WNW,286,0.0,0.0,90,0.00,,,0.00,Wunderground v.1.15,2013-12-26 23:10:00,
2013-12-26 18:20:00,10.7,8.3,30.20,WNW,286,0.0,0.0,90,0.00,,,0.00,Wunderground v.1.15,2013-12-26 23:20:00,
2013-12-26 18:30:00,10.8,8.4,30.20,WNW,286,0.0,0.0,90,0.00,,,0.00,Wunderground v.1.15,2013-12-26 23:30:00,
2013-12-26 18:40:00,10.9,8.5,30.19,WNW,286,0.0,0.0,90,0.00,,,0.00,Wunderground v.1.15,2013-12-26 23:40:00,
2013-12-26 18:50:00,11.0,8.6,30.19,WNW,286,0.0,0.0,90,0.00,,,0.00,Wunderground v.1.15,2013-12-26 23:50:00,
2013-12-26 19:00:00,10.9,8.5,30.19,WNW,286,0.0,0.0,90,0.00,,,0.00,Wunderground v.1.15,2013-12-27 00:00:00,
2013-12-26 19:10:00,10.6,8.0,30.19,WNW,286,0.0,0.0,89,0.00,,,0.00,Wunderground v.1.15,2013-12-27 00:10:00,
2013-12-26 19:20:00,10.5,8.1,30.18,WNW,286,0.0,0.0,90,0.00,,,0.00,Wunderground v.1.15,2013-12-27 00:20:00,
2013-12-26 19:30:00,10.5,7.9,30.18,WNW,286,0.0,0.0,89,0.00,,,0.00,Wunderground v.1.15,2013-12-27 00:30:00,
2013-12-26 19:40:00,10.5,7.9,30.19,WNW,286,0.0,0.0,89,0.00,,,0.00,Wunderground v.1.15,2013-12-27 00:40:00,
2013-12-26 19:50:00,10.5,8.1,30.18,WNW,286,0.0,0.0,90,0.00,,,0.00,Wunderground v.1.15,2013-12-27 00:50:00,
2013-12-26 20:00:00,10.6,8.2,30.18,WNW,286,0.0,0.0,90,0.00,,,0.00,Wunderground v.1.15,2013-12-27 01:00:00,
2013-12-26 20:10:00,10.7,8.3,30.18,WNW,286,0.0,0.0,90,0.00,,,0.00,Wunderground v.1.15,2013-12-27 01:10:00,
2013-12-26 20:20:00,10.7,8.3,30.18,WNW,286,0.0,0.0,90,0.00,,,0.00,Wunderground v.1.15,2013-12-27 01:20:00,
2013-12-26 20:30:00,10.6,8.2,30.18,WNW,286,0.0,0.0,90,0.00,,,0.00,Wunderground v.1.15,2013-12-27 01:30:00,
2013-12-26 20:40:00,10.5,7.9,30.17,WNW,286,0.0,0.0,89,0.00,,,0.00,Wunderground v.1.15,2013-12-27 01:40:00,
2013-12-26 20:50:00,10.5,7.9,30.17,WNW,286,0.0,0.0,89,0.00,,,0.00,Wunderground v.1.15,2013-12-27 01:50:00,
2013-12-26 21:00:00,10.4,8.0,30.17,WNW,286,0.0,0.0,90,0.00,,,0.00,Wunderground v.1.15,2013-12-27 02:00:00,
2013-12-26 21:10:00,10.3,7.7,30.17,WNW,286,0.0,0.0,89,0.00,,,0.00,Wunderground v.1.15,2013-12-27 02:10:00,
2013-12-26 21:20:00,9.9,7.3,30.16,WNW,286,0.0,0.0,89,0.00,,,0.00,Wunderground v.1.15,2013-12-27 02:20:00,
2013-12-26 21:30:00,9.1,6.5,30.16,WNW,286,0.0,0.0,89,0.00,,,0.00,Wunderground v.1.15,2013-12-27 02:30:00,
2013-12-26 21:40:00,8.7,6.1,30.17,WNW,286,0.0,0.0,89,0.00,,,0.00,Wunderground v.1.15,2013-12-27 02:40:00,
2013-12-26 21:50:00,8.0,5.4,30.17,WNW,286,0.0,0.0,89,0.00,,,0.00,Wunderground v.1.15,2013-12-27 02:50:00,
2013-12-26 22:00:00,7.3,4.5,30.16,WNW,286,0.0,0.0,88,0.00,,,0.00,Wunderground v.1.15,2013-12-27 03:00:00,
2013-12-26 22:10:00,6.6,3.8,30.17,WNW,286,0.0,0.0,88,0.00,,,0.00,Wunderground v.1.15,2013-12-27 03:10:00,
2013-12-26 22:20:00,6.2,3.7,30.17,WNW,286,0.0,0.0,89,0.00,,,0.00,Wunderground v.1.15,2013-12-27 03:20:00,
2013-12-26 22:30:00,6.0,3.5,30.16,WNW,286,0.0,0.0,89,0.00,,,0.00,Wunderground v.1.15,2013-12-27 03:30:00,
2013-12-26 22:40:00,6.0,3.5,30.17,WNW,286,0.0,0.0,89,0.00,,,0.00,Wunderground v.1.15,2013-12-27 03:40:00,
2013-12-26 22:50:00,5.8,3.3,30.16,WNW,286,0.0,0.0,89,0.00,,,0.00,Wunderground v.1.15,2013-12-27 03:50:00,
2013-12-26 23:00:00,5.7,3.2,30.16,WNW,286,0.0,0.0,89,0.00,,,0.00,Wunderground v.1.15,2013-12-27 04:00:00,
2013-12-26 23:10:00,4.9,2.1,30.16,WNW,286,0.0,0.0,88,0.00,,,0.00,Wunderground v.1.15,2013-12-27 04:10:00,
2013-12-26 23:20:00,4.9,2.4,30.15,WNW,286,0.0,0.0,89,0.00,,,0.00,Wunderground v.1.15,2013-12-27 04:20:00,
2013-12-26 23:30:00,4.4,1.6,30.14,WNW,286,0.0,0.0,88,0.00,,,0.00,Wunderground v.1.15,2013-12-27 04:30:00,
2013-12-26 23:40:00,4.1,1.3,30.14,WNW,286,0.0,0.0,88,0.00,,,0.00,Wunderground v.1.15,2013-12-27 04:40:00,
2013-12-26 23:50:00,3.6,0.8,30.14,WNW,286,0.0,0.0,88,0.00,,,0.00,Wunderground v.1.15,2013-12-27 04:50:00,